createdAt,value
2022-09-04T00:00:50.689Z,0.20
2022-09-04T00:01:50.682Z,0.20
2022-09-04T00:02:50.682Z,0.20
2022-09-04T00:03:50.767Z,0.20
2022-09-04T00:04:50.799Z,0.20
2022-09-04T00:05:50.655Z,0.20
2022-09-04T00:06:50.638Z,0.20
2022-09-04T00:07:50.637Z,0.30
2022-09-04T00:08:50.642Z,0.20
2022-09-04T00:09:50.611Z,0.20
2022-09-04T00:10:50.622Z,0.20
2022-09-04T00:11:50.605Z,0.20
2022-09-04T00:12:50.598Z,0.20
2022-09-04T00:13:50.601Z,0.20
2022-09-04T00:14:50.585Z,0.20
2022-09-04T00:15:50.604Z,0.20
2022-09-04T00:16:50.590Z,0.10
2022-09-04T00:17:50.564Z,0.30
2022-09-04T00:18:50.548Z,0.20
2022-09-04T00:19:50.547Z,0.20
2022-09-04T00:20:50.551Z,0.20
2022-09-04T00:21:50.528Z,0.20
2022-09-04T00:22:50.520Z,0.20
2022-09-04T00:23:50.511Z,0.30
2022-09-04T00:24:50.506Z,0.20
2022-09-04T00:25:50.520Z,0.20
2022-09-04T00:26:50.505Z,0.20
2022-09-04T00:27:50.494Z,0.20
2022-09-04T00:28:50.487Z,0.20
2022-09-04T00:29:50.480Z,0.20
2022-09-04T00:30:50.550Z,0.20
2022-09-04T00:31:50.463Z,0.30
2022-09-04T00:32:50.459Z,0.20
2022-09-04T00:33:50.442Z,0.10
2022-09-04T00:34:50.434Z,0.20
2022-09-04T00:35:50.434Z,0.10
2022-09-04T00:36:50.558Z,0.20
2022-09-04T00:37:50.418Z,0.20
2022-09-04T00:38:50.406Z,0.30
2022-09-04T00:39:50.463Z,0.20
2022-09-04T00:40:50.404Z,0.20
2022-09-04T00:41:50.411Z,0.30
2022-09-04T00:42:50.461Z,0.20
2022-09-04T00:43:50.374Z,0.20
2022-09-04T00:44:50.839Z,0.20
2022-09-04T00:45:50.392Z,0.30
2022-09-04T00:46:50.359Z,0.20
2022-09-04T00:47:50.366Z,0.20
2022-09-04T00:48:50.337Z,0.30
2022-09-04T00:49:50.331Z,0.20
2022-09-04T00:50:50.318Z,0.20
2022-09-04T00:51:50.315Z,0.20
2022-09-04T00:52:50.322Z,0.20
2022-09-04T00:53:51.302Z,0.20
2022-09-04T00:54:50.294Z,0.20
2022-09-04T00:55:50.288Z,0.10
2022-09-04T00:56:50.278Z,0.20
2022-09-04T00:57:50.275Z,0.20
2022-09-04T00:58:50.279Z,0.20
2022-09-04T00:59:50.263Z,0.20
2022-09-04T01:00:50.305Z,0.20
2022-09-04T01:01:50.391Z,0.20
2022-09-04T01:02:50.241Z,0.20
2022-09-04T01:03:50.238Z,0.20
2022-09-04T01:04:50.225Z,0.30
2022-09-04T01:05:50.225Z,0.20
2022-09-04T01:06:50.219Z,0.20
2022-09-04T01:07:50.211Z,0.20
2022-09-04T01:08:50.206Z,0.20
2022-09-04T01:09:51.194Z,0.20
2022-09-04T01:10:50.199Z,0.20
2022-09-04T01:11:50.186Z,0.20
2022-09-04T01:12:50.179Z,0.20
2022-09-04T01:13:50.178Z,0.30
2022-09-04T01:14:53.062Z,0.30
2022-09-04T01:15:50.166Z,0.20
2022-09-04T01:16:50.230Z,0.40
2022-09-04T01:17:50.146Z,0.20
2022-09-04T01:18:50.158Z,0.20
2022-09-04T01:19:50.134Z,0.30
2022-09-04T01:20:50.127Z,0.30
2022-09-04T01:21:50.123Z,0.20
2022-09-04T01:22:50.119Z,0.20
2022-09-04T01:23:50.126Z,0.20
2022-09-04T01:24:50.103Z,0.20
2022-09-04T01:25:50.100Z,0.20
2022-09-04T01:26:50.095Z,0.20
2022-09-04T01:27:50.087Z,0.20
2022-09-04T01:28:50.090Z,0.20
2022-09-04T01:29:50.071Z,0.20
2022-09-04T01:30:50.063Z,0.20
2022-09-04T01:31:50.107Z,0.20
2022-09-04T01:32:50.058Z,0.20
2022-09-04T01:33:50.052Z,0.20
2022-09-04T01:34:50.038Z,0.20
2022-09-04T01:35:50.031Z,0.30
2022-09-04T01:36:50.042Z,0.30
2022-09-04T01:37:50.019Z,0.20
2022-09-04T01:38:50.088Z,0.20
2022-09-04T01:39:50.092Z,0.10
2022-09-04T01:40:50.009Z,0.30
2022-09-04T01:41:49.994Z,0.20
2022-09-04T01:42:49.987Z,0.20
2022-09-04T01:43:49.991Z,0.20
2022-09-04T01:44:49.967Z,0.20
2022-09-04T01:45:50.019Z,0.20
2022-09-04T01:46:49.954Z,0.30
2022-09-04T01:47:49.955Z,0.20
2022-09-04T01:48:49.950Z,0.20
2022-09-04T01:49:49.954Z,0.20
2022-09-04T01:50:49.931Z,0.30
2022-09-04T01:51:49.936Z,0.20
2022-09-04T01:52:49.922Z,0.30
2022-09-04T01:53:49.914Z,0.20
2022-09-04T01:54:49.922Z,0.10
2022-09-04T01:55:50.015Z,0.20
2022-09-04T01:56:49.886Z,0.20
2022-09-04T01:57:49.892Z,0.20
2022-09-04T01:58:49.878Z,0.20
2022-09-04T01:59:53.576Z,0.20
2022-09-04T02:00:50.918Z,0.20
2022-09-04T02:01:49.917Z,0.30
2022-09-04T02:02:53.246Z,0.20
2022-09-04T02:03:49.850Z,0.20
2022-09-04T02:04:49.839Z,0.20
2022-09-04T02:05:49.859Z,0.20
2022-09-04T02:06:49.847Z,0.30
2022-09-04T02:07:49.822Z,0.30
2022-09-04T02:08:49.820Z,0.20
2022-09-04T02:09:49.847Z,0.20
2022-09-04T02:10:49.826Z,0.20
2022-09-04T02:11:49.830Z,0.20
2022-09-04T02:12:49.797Z,0.30
2022-09-04T02:13:49.792Z,0.20
2022-09-04T02:14:49.793Z,0.30
2022-09-04T02:15:49.794Z,0.20
2022-09-04T02:16:49.827Z,0.10
2022-09-04T02:17:49.773Z,0.20
2022-09-04T02:18:49.762Z,0.20
2022-09-04T02:19:49.753Z,0.30
2022-09-04T02:20:49.757Z,0.20
2022-09-04T02:21:49.765Z,0.20
2022-09-04T02:22:49.725Z,0.30
2022-09-04T02:23:49.729Z,0.20
2022-09-04T02:24:49.726Z,0.20
2022-09-04T02:25:49.697Z,0.20
2022-09-04T02:26:49.726Z,0.20
2022-09-04T02:27:49.702Z,0.20
2022-09-04T02:28:49.686Z,0.20
2022-09-04T02:29:49.691Z,0.30
2022-09-04T02:30:54.414Z,0.20
2022-09-04T02:31:50.728Z,0.20
2022-09-04T02:32:49.674Z,0.30
2022-09-04T02:33:49.670Z,0.40
2022-09-04T02:34:49.670Z,0.30
2022-09-04T02:35:49.649Z,0.20
2022-09-04T02:36:50.182Z,0.20
2022-09-04T02:37:49.646Z,0.20
2022-09-04T02:38:49.646Z,0.20
2022-09-04T02:39:49.686Z,0.20
2022-09-04T02:40:49.626Z,0.30
2022-09-04T02:41:49.618Z,0.30
2022-09-04T02:42:49.637Z,0.20
2022-09-04T02:43:49.609Z,0.20
2022-09-04T02:44:49.603Z,0.20
2022-09-04T02:45:49.604Z,0.20
2022-09-04T02:46:49.617Z,0.20
2022-09-04T02:47:49.592Z,0.30
2022-09-04T02:48:49.584Z,0.20
2022-09-04T02:49:49.574Z,0.20
2022-09-04T02:50:49.566Z,0.20
2022-09-04T02:51:49.565Z,0.10
2022-09-04T02:52:49.558Z,0.30
2022-09-04T02:53:49.559Z,0.20
2022-09-04T02:54:49.545Z,0.20
2022-09-04T02:55:49.545Z,0.20
2022-09-04T02:56:49.521Z,0.30
2022-09-04T02:57:49.525Z,0.30
2022-09-04T02:58:49.541Z,0.30
2022-09-04T02:59:49.514Z,0.20
2022-09-04T03:00:49.525Z,0.20
2022-09-04T03:01:50.086Z,0.40
2022-09-04T03:02:49.486Z,0.30
2022-09-04T03:03:49.502Z,0.30
2022-09-04T03:04:49.477Z,0.20
2022-09-04T03:05:49.478Z,0.20
2022-09-04T03:06:49.469Z,0.20
2022-09-04T03:07:49.478Z,0.30
2022-09-04T03:08:49.449Z,0.20
2022-09-04T03:09:49.450Z,0.30
2022-09-04T03:10:49.441Z,0.20
2022-09-04T03:11:49.433Z,0.20
2022-09-04T03:12:49.442Z,0.20
2022-09-04T03:13:49.443Z,0.20
2022-09-04T03:14:49.413Z,0.30
2022-09-04T03:15:49.463Z,0.20
2022-09-04T03:16:49.395Z,0.20
2022-09-04T03:17:49.390Z,0.20
2022-09-04T03:18:49.386Z,0.30
2022-09-04T03:19:49.422Z,0.30
2022-09-04T03:20:49.378Z,0.20
2022-09-04T03:21:49.361Z,0.40
2022-09-04T03:22:49.354Z,0.30
2022-09-04T03:23:49.350Z,0.20
2022-09-04T03:24:49.361Z,0.20
2022-09-04T03:25:49.347Z,0.20
2022-09-04T03:26:49.334Z,0.20
2022-09-04T03:27:49.323Z,0.30
2022-09-04T03:28:49.322Z,0.30
2022-09-04T03:29:49.310Z,0.20
2022-09-04T03:30:49.325Z,0.20
2022-09-04T03:31:49.382Z,0.20
2022-09-04T03:32:49.298Z,0.20
2022-09-04T03:33:49.294Z,0.20
2022-09-04T03:34:49.281Z,0.20
2022-09-04T03:35:49.294Z,0.30
2022-09-04T03:36:49.265Z,0.20
2022-09-04T03:37:49.267Z,0.30
2022-09-04T03:38:49.249Z,0.30
2022-09-04T03:39:49.327Z,0.30
2022-09-04T03:40:49.257Z,0.20
2022-09-04T03:41:49.229Z,0.20
2022-09-04T03:42:49.225Z,0.30
2022-09-04T03:43:49.224Z,0.20
2022-09-04T03:44:50.434Z,0.30
2022-09-04T03:45:49.220Z,0.20
2022-09-04T03:46:49.291Z,0.20
2022-09-04T03:47:49.198Z,0.30
2022-09-04T03:48:49.182Z,0.30
2022-09-04T03:49:49.194Z,0.20
2022-09-04T03:50:49.199Z,0.20
2022-09-04T03:51:49.682Z,0.20
2022-09-04T03:52:49.173Z,0.30
2022-09-04T03:53:49.158Z,0.20
2022-09-04T03:54:49.166Z,0.20
2022-09-04T03:55:49.177Z,0.20
2022-09-04T03:56:49.146Z,0.20
2022-09-04T03:57:49.137Z,0.20
2022-09-04T03:58:49.129Z,0.20
2022-09-04T03:59:49.131Z,0.20
2022-09-04T04:00:49.185Z,0.30
2022-09-04T04:01:49.145Z,0.20
2022-09-04T04:02:49.181Z,0.20
2022-09-04T04:03:49.094Z,0.20
2022-09-04T04:04:49.089Z,0.30
2022-09-04T04:05:49.081Z,0.30
2022-09-04T04:06:49.086Z,0.20
2022-09-04T04:07:49.070Z,0.30
2022-09-04T04:08:49.072Z,0.30
2022-09-04T04:09:49.074Z,0.20
2022-09-04T04:10:49.039Z,0.20
2022-09-04T04:11:50.057Z,0.20
2022-09-04T04:12:49.862Z,0.30
2022-09-04T04:13:49.029Z,0.20
2022-09-04T04:14:49.022Z,0.20
2022-09-04T04:15:49.037Z,0.20
2022-09-04T04:16:56.061Z,0.20
2022-09-04T04:17:50.018Z,0.20
2022-09-04T04:18:49.010Z,0.30
2022-09-04T04:19:48.992Z,0.20
2022-09-04T04:20:48.994Z,0.20
2022-09-04T04:21:48.992Z,0.30
2022-09-04T04:22:48.972Z,0.20
2022-09-04T04:23:48.977Z,0.20
2022-09-04T04:24:48.961Z,0.30
2022-09-04T04:25:52.370Z,0.20
2022-09-04T04:26:54.094Z,0.20
2022-09-04T04:27:50.949Z,0.30
2022-09-04T04:28:48.936Z,0.30
2022-09-04T04:29:48.926Z,0.20
2022-09-04T04:30:48.924Z,0.30
2022-09-04T04:31:48.961Z,0.30
2022-09-04T04:32:48.923Z,0.20
2022-09-04T04:33:48.908Z,0.20
2022-09-04T04:34:48.892Z,0.30
2022-09-04T04:35:48.880Z,0.30
2022-09-04T04:36:48.881Z,0.30
2022-09-04T04:37:48.886Z,0.30
2022-09-04T04:38:48.860Z,0.20
2022-09-04T04:39:48.891Z,0.10
2022-09-04T04:40:48.848Z,0.30
2022-09-04T04:41:48.848Z,0.20
2022-09-04T04:42:48.845Z,0.20
2022-09-04T04:43:48.836Z,0.10
2022-09-04T04:44:48.824Z,0.20
2022-09-04T04:45:48.821Z,0.30
2022-09-04T04:46:48.881Z,0.30
2022-09-04T04:47:48.816Z,0.30
2022-09-04T04:48:48.811Z,0.20
2022-09-04T04:49:48.796Z,0.30
2022-09-04T04:50:48.796Z,0.30
2022-09-04T04:51:48.785Z,0.20
2022-09-04T04:52:48.780Z,0.20
2022-09-04T04:53:48.785Z,0.30
2022-09-04T04:54:48.768Z,0.20
2022-09-04T04:55:48.761Z,0.20
2022-09-04T04:56:48.745Z,0.20
2022-09-04T04:57:48.751Z,0.20
2022-09-04T04:58:48.741Z,0.20
2022-09-04T04:59:48.728Z,0.20
2022-09-04T05:00:48.723Z,0.20
2022-09-04T05:01:48.820Z,0.20
2022-09-04T05:02:48.766Z,0.30
2022-09-04T05:03:48.704Z,0.20
2022-09-04T05:04:48.719Z,0.20
2022-09-04T05:05:48.695Z,0.20
2022-09-04T05:06:48.685Z,0.20
2022-09-04T05:07:48.682Z,0.20
2022-09-04T05:08:48.668Z,0.20
2022-09-04T05:09:48.685Z,0.20
2022-09-04T05:10:48.672Z,0.20
2022-09-04T05:11:48.653Z,0.20
2022-09-04T05:12:48.649Z,0.20
2022-09-04T05:13:51.490Z,0.20
2022-09-04T05:14:48.632Z,0.10
2022-09-04T05:16:07.888Z,0.20
2022-09-04T05:16:55.341Z,0.20
2022-09-04T05:17:50.611Z,0.20
2022-09-04T05:18:48.606Z,0.20
2022-09-04T05:19:48.592Z,0.20
2022-09-04T05:20:48.684Z,0.20
2022-09-04T05:21:48.590Z,0.20
2022-09-04T05:22:48.568Z,0.30
2022-09-04T05:23:48.576Z,0.30
2022-09-04T05:24:48.572Z,0.30
2022-09-04T05:25:49.556Z,0.20
2022-09-04T05:26:48.587Z,0.30
2022-09-04T05:27:48.559Z,0.20
2022-09-04T05:28:48.542Z,0.20
2022-09-04T05:29:48.532Z,0.20
2022-09-04T05:30:48.613Z,0.20
2022-09-04T05:31:48.535Z,0.20
2022-09-04T05:32:48.515Z,0.20
2022-09-04T05:33:48.503Z,0.20
2022-09-04T05:34:49.499Z,0.20
2022-09-04T05:35:48.499Z,0.20
2022-09-04T05:36:48.507Z,0.20
2022-09-04T05:37:48.479Z,0.20
2022-09-04T05:38:48.475Z,0.30
2022-09-04T05:39:48.500Z,0.10
2022-09-04T05:40:48.467Z,0.30
2022-09-04T05:41:48.475Z,0.20
2022-09-04T05:42:49.459Z,0.20
2022-09-04T05:43:48.447Z,0.10
2022-09-04T05:44:48.439Z,0.10
2022-09-04T05:45:48.432Z,0.20
2022-09-04T05:46:51.828Z,0.20
2022-09-04T05:47:48.443Z,0.20
2022-09-04T05:48:48.415Z,0.20
2022-09-04T05:49:48.420Z,0.30
2022-09-04T05:50:48.411Z,0.20
2022-09-04T05:51:48.403Z,0.20
2022-09-04T05:52:48.409Z,0.20
2022-09-04T05:53:48.378Z,0.20
2022-09-04T05:54:48.381Z,0.20
2022-09-04T05:55:48.379Z,0.20
2022-09-04T05:56:48.376Z,0.20
2022-09-04T05:57:48.364Z,0.20
2022-09-04T05:58:48.356Z,0.20
2022-09-04T05:59:48.347Z,0.20
2022-09-04T06:00:48.344Z,0.20
2022-09-04T06:01:51.812Z,0.20
2022-09-04T06:02:49.365Z,0.20
2022-09-04T06:03:48.327Z,0.30
2022-09-04T06:04:48.323Z,0.20
2022-09-04T06:05:48.315Z,0.30
2022-09-04T06:06:48.328Z,0.20
2022-09-04T06:07:48.308Z,0.20
2022-09-04T06:08:48.288Z,0.20
2022-09-04T06:09:48.296Z,0.20
2022-09-04T06:10:48.290Z,0.20
2022-09-04T06:11:48.300Z,0.20
2022-09-04T06:12:48.271Z,0.30
2022-09-04T06:13:48.260Z,0.20
2022-09-04T06:14:48.267Z,0.20
2022-09-04T06:15:48.270Z,0.20
2022-09-04T06:16:48.247Z,0.20
2022-09-04T06:17:48.251Z,0.30
2022-09-04T06:18:48.235Z,0.20
2022-09-04T06:19:48.231Z,0.20
2022-09-04T06:20:48.224Z,0.20
2022-09-04T06:21:48.222Z,0.20
2022-09-04T06:22:49.513Z,0.20
2022-09-04T06:23:48.212Z,0.20
2022-09-04T06:24:48.215Z,0.10
2022-09-04T06:25:48.203Z,0.20
2022-09-04T06:26:48.195Z,0.20
2022-09-04T06:27:48.188Z,0.10
2022-09-04T06:28:48.183Z,0.30
2022-09-04T06:29:48.159Z,0.20
2022-09-04T06:30:48.197Z,0.20
2022-09-04T06:31:48.151Z,0.10
2022-09-04T06:32:49.313Z,0.20
2022-09-04T06:33:48.166Z,0.20
2022-09-04T06:34:48.127Z,0.30
2022-09-04T06:35:48.121Z,0.20
2022-09-04T06:36:49.116Z,0.20
2022-09-04T06:37:48.109Z,0.10
2022-09-04T06:38:48.083Z,0.20
2022-09-04T06:39:49.125Z,0.20
2022-09-04T06:40:48.088Z,0.10
2022-09-04T06:41:48.083Z,0.10
2022-09-04T06:42:48.062Z,0.20
2022-09-04T06:43:48.715Z,0.10
2022-09-04T06:44:48.079Z,0.20
2022-09-04T06:45:49.050Z,0.20
2022-09-04T06:46:48.142Z,0.20
2022-09-04T06:47:48.035Z,0.10
2022-09-04T06:48:48.022Z,0.10
2022-09-04T06:49:48.035Z,0.10
2022-09-04T06:50:48.006Z,0.10
2022-09-04T06:51:47.999Z,0.10
2022-09-04T06:52:47.998Z,0.10
2022-09-04T06:53:47.999Z,0.10
2022-09-04T06:54:47.995Z,0.10
2022-09-04T06:55:47.994Z,0.10
2022-09-04T06:56:47.971Z,0.20
2022-09-04T06:57:47.960Z,0.20
2022-09-04T06:58:47.967Z,0.10
2022-09-04T06:59:47.985Z,0.10
2022-09-04T07:00:47.947Z,0.10
2022-09-04T07:01:48.119Z,0.10
2022-09-04T07:02:48.085Z,0.10
2022-09-04T07:03:47.930Z,0.10
2022-09-04T07:04:47.942Z,0.10
2022-09-04T07:05:47.919Z,0.10
2022-09-04T07:06:47.927Z,0.10
2022-09-04T07:07:47.901Z,0.10
2022-09-04T07:08:47.906Z,0.20
2022-09-04T07:09:47.882Z,0.10
2022-09-04T07:10:47.893Z,0.10
2022-09-04T07:11:47.898Z,0.10
2022-09-04T07:12:47.871Z,0.10
2022-09-04T07:13:47.866Z,0.20
2022-09-04T07:14:47.864Z,0.10
2022-09-04T07:15:47.884Z,0.10
2022-09-04T07:16:47.854Z,0.10
2022-09-04T07:17:47.838Z,0.10
2022-09-04T07:18:47.834Z,0.00
2022-09-04T07:19:47.823Z,0.10
2022-09-04T07:20:47.841Z,0.10
2022-09-04T07:21:47.808Z,0.10
2022-09-04T07:22:47.815Z,0.10
2022-09-04T07:23:47.800Z,0.10
2022-09-04T07:24:47.791Z,0.10
2022-09-04T07:25:47.798Z,0.10
2022-09-04T07:26:47.810Z,0.10
2022-09-04T07:27:47.811Z,0.10
2022-09-04T07:28:47.776Z,0.10
2022-09-04T07:29:47.746Z,0.10
2022-09-04T07:30:47.759Z,0.10
2022-09-04T07:31:47.798Z,0.10
2022-09-04T07:32:47.750Z,0.10
2022-09-04T07:33:47.720Z,0.10
2022-09-04T07:34:47.727Z,0.10
2022-09-04T07:35:47.714Z,0.10
2022-09-04T07:36:47.695Z,0.00
2022-09-04T07:37:47.690Z,0.10
2022-09-04T07:38:50.597Z,0.10
2022-09-04T07:39:47.706Z,0.10
2022-09-04T07:40:47.682Z,0.10
2022-09-04T07:41:47.735Z,0.10
2022-09-04T07:42:47.663Z,0.10
2022-09-04T07:43:50.258Z,0.00
2022-09-04T07:44:49.650Z,0.00
2022-09-04T07:45:47.705Z,0.10
2022-09-04T07:46:47.657Z,0.10
2022-09-04T07:47:47.634Z,0.10
2022-09-04T07:48:47.627Z,0.10
2022-09-04T07:49:47.647Z,0.10
2022-09-04T07:50:47.606Z,0.10
2022-09-04T07:51:47.614Z,0.10
2022-09-04T07:52:47.583Z,0.10
2022-09-04T07:53:48.614Z,0.20
2022-09-04T07:54:47.586Z,0.10
2022-09-04T07:55:47.574Z,0.10
2022-09-04T07:56:47.571Z,0.10
2022-09-04T07:57:47.580Z,0.20
2022-09-04T07:58:47.571Z,0.10
2022-09-04T07:59:47.550Z,0.10
2022-09-04T08:00:47.546Z,0.10
2022-09-04T08:01:47.826Z,0.10
2022-09-04T08:02:47.534Z,0.10
2022-09-04T08:03:54.502Z,0.10
2022-09-04T08:04:47.575Z,0.10
2022-09-04T08:05:47.523Z,0.10
2022-09-04T08:06:47.526Z,0.10
2022-09-04T08:07:47.506Z,0.10
2022-09-04T08:08:47.500Z,0.10
2022-09-04T08:09:47.490Z,0.10
2022-09-04T08:10:47.486Z,0.10
2022-09-04T08:11:47.484Z,0.10
2022-09-04T08:12:47.482Z,0.10
2022-09-04T08:13:47.466Z,0.10
2022-09-04T08:14:47.458Z,0.10
2022-09-04T08:15:47.476Z,0.20
2022-09-04T08:16:47.450Z,0.10
2022-09-04T08:17:47.454Z,0.10
2022-09-04T08:18:47.433Z,0.10
2022-09-04T08:19:47.438Z,0.10
2022-09-04T08:20:47.426Z,0.10
2022-09-04T08:21:47.420Z,0.10
2022-09-04T08:22:47.399Z,0.10
2022-09-04T08:23:47.400Z,0.10
2022-09-04T08:24:47.430Z,0.10
2022-09-04T08:25:47.386Z,0.10
2022-09-04T08:26:47.391Z,0.10
2022-09-04T08:27:47.374Z,0.10
2022-09-04T08:28:47.371Z,0.10
2022-09-04T08:29:47.367Z,0.10
2022-09-04T08:30:47.425Z,0.10
2022-09-04T08:31:47.346Z,0.10
2022-09-04T08:32:47.349Z,0.10
2022-09-04T08:33:47.354Z,0.10
2022-09-04T08:34:47.338Z,0.20
2022-09-04T08:35:47.349Z,0.20
2022-09-04T08:36:47.343Z,0.20
2022-09-04T08:37:47.333Z,0.10
2022-09-04T08:38:47.313Z,0.10
2022-09-04T08:39:47.401Z,0.10
2022-09-04T08:40:47.305Z,0.10
2022-09-04T08:41:47.318Z,0.10
2022-09-04T08:42:47.286Z,0.10
2022-09-04T08:43:47.286Z,0.10
2022-09-04T08:44:47.278Z,0.20
2022-09-04T08:45:47.293Z,0.10
2022-09-04T08:46:47.439Z,0.10
2022-09-04T08:47:47.258Z,0.20
2022-09-04T08:48:47.253Z,0.20
2022-09-04T08:49:47.252Z,0.20
2022-09-04T08:50:47.245Z,0.20
2022-09-04T08:51:47.241Z,0.10
2022-09-04T08:52:48.237Z,0.20
2022-09-04T08:53:47.218Z,0.20
2022-09-04T08:54:47.218Z,0.20
2022-09-04T08:55:47.209Z,0.20
2022-09-04T08:56:47.221Z,0.20
2022-09-04T08:57:47.198Z,0.20
2022-09-04T08:58:48.206Z,0.20
2022-09-04T08:59:48.194Z,0.20
2022-09-04T09:00:47.187Z,0.20
2022-09-04T09:01:47.242Z,0.20
2022-09-04T09:02:47.222Z,0.20
2022-09-04T09:03:47.163Z,0.20
2022-09-04T09:04:47.159Z,0.20
2022-09-04T09:05:47.154Z,0.20
2022-09-04T09:06:47.149Z,0.20
2022-09-04T09:07:47.143Z,0.20
2022-09-04T09:08:47.137Z,0.20
2022-09-04T09:09:47.130Z,0.20
2022-09-04T09:10:47.129Z,0.20
2022-09-04T09:11:47.111Z,0.20
2022-09-04T09:12:47.110Z,0.20
2022-09-04T09:13:47.119Z,0.20
2022-09-04T09:14:47.089Z,0.20
2022-09-04T09:15:47.088Z,0.20
2022-09-04T09:16:47.156Z,0.20
2022-09-04T09:17:47.070Z,0.20
2022-09-04T09:18:47.073Z,0.20
2022-09-04T09:19:47.062Z,0.20
2022-09-04T09:20:47.059Z,0.20
2022-09-04T09:21:47.049Z,0.20
2022-09-04T09:22:47.045Z,0.20
2022-09-04T09:23:47.069Z,0.30
2022-09-04T09:24:47.025Z,0.20
2022-09-04T09:25:47.735Z,0.20
2022-09-04T09:26:47.022Z,0.20
2022-09-04T09:27:47.021Z,0.20
2022-09-04T09:28:47.037Z,0.20
2022-09-04T09:29:47.005Z,0.30
2022-09-04T09:30:47.025Z,0.20
2022-09-04T09:31:46.985Z,0.20
2022-09-04T09:32:46.981Z,0.30
2022-09-04T09:33:46.978Z,0.20
2022-09-04T09:34:46.981Z,0.20
2022-09-04T09:35:46.966Z,0.20
2022-09-04T09:36:46.961Z,0.20
2022-09-04T09:37:46.953Z,0.20
2022-09-04T09:38:46.953Z,0.30
2022-09-04T09:39:47.014Z,0.30
2022-09-04T09:40:46.936Z,0.30
2022-09-04T09:41:46.933Z,0.20
2022-09-04T09:42:46.930Z,0.30
2022-09-04T09:43:46.916Z,0.20
2022-09-04T09:44:46.940Z,0.20
2022-09-04T09:45:46.981Z,0.20
2022-09-04T09:46:46.911Z,0.30
2022-09-04T09:47:46.897Z,0.30
2022-09-04T09:48:46.896Z,0.30
2022-09-04T09:49:46.910Z,0.20
2022-09-04T09:50:46.882Z,0.30
2022-09-04T09:51:46.869Z,0.30
2022-09-04T09:52:46.881Z,0.30
2022-09-04T09:53:47.531Z,0.30
2022-09-04T09:54:47.877Z,0.30
2022-09-04T09:55:46.869Z,0.30
2022-09-04T09:56:54.042Z,0.30
2022-09-04T09:57:47.883Z,0.30
2022-09-04T09:58:46.851Z,0.30
2022-09-04T09:59:46.833Z,0.30
2022-09-04T10:00:46.873Z,0.30
2022-09-04T10:01:46.828Z,0.40
2022-09-04T10:02:46.894Z,0.40
2022-09-04T10:03:46.819Z,0.40
2022-09-04T10:04:46.824Z,0.30
2022-09-04T10:05:46.826Z,0.30
2022-09-04T10:06:46.796Z,0.40
2022-09-04T10:07:46.789Z,0.40
2022-09-04T10:08:46.781Z,0.30
2022-09-04T10:09:46.785Z,0.40
2022-09-04T10:10:46.800Z,0.40
2022-09-04T10:11:46.781Z,0.40
2022-09-04T10:12:46.773Z,0.40
2022-09-04T10:13:46.761Z,0.40
2022-09-04T10:14:46.776Z,0.40
2022-09-04T10:15:46.744Z,0.40
2022-09-04T10:16:46.804Z,0.40
2022-09-04T10:17:46.733Z,0.40
2022-09-04T10:18:46.728Z,0.40
2022-09-04T10:19:46.720Z,0.40
2022-09-04T10:20:46.721Z,0.40
2022-09-04T10:21:46.737Z,0.40
2022-09-04T10:22:46.718Z,0.50
2022-09-04T10:23:46.704Z,0.40
2022-09-04T10:24:46.709Z,0.50
2022-09-04T10:25:46.696Z,0.40
2022-09-04T10:26:46.715Z,0.50
2022-09-04T10:27:46.687Z,0.50
2022-09-04T10:28:46.685Z,0.50
2022-09-04T10:29:46.685Z,0.50
2022-09-04T10:30:46.753Z,0.50
2022-09-04T10:31:46.684Z,0.50
2022-09-04T10:32:46.668Z,0.50
2022-09-04T10:33:46.659Z,0.50
2022-09-04T10:34:46.654Z,0.60
2022-09-04T10:35:46.651Z,0.60
2022-09-04T10:36:46.673Z,0.70
2022-09-04T10:37:46.642Z,0.60
2022-09-04T10:38:46.638Z,0.60
2022-09-04T10:39:46.677Z,0.60
2022-09-04T10:40:50.752Z,0.60
2022-09-04T10:41:47.618Z,0.60
2022-09-04T10:42:47.626Z,0.50
2022-09-04T10:43:46.607Z,0.60
2022-09-04T10:44:46.606Z,0.60
2022-09-04T10:45:46.664Z,0.60
2022-09-04T10:46:46.613Z,0.60
2022-09-04T10:47:46.594Z,0.70
2022-09-04T10:48:46.592Z,0.70
2022-09-04T10:49:46.586Z,0.70
2022-09-04T10:50:46.589Z,0.70
2022-09-04T10:51:46.570Z,0.70
2022-09-04T10:52:46.590Z,0.60
2022-09-04T10:53:46.574Z,0.70
2022-09-04T10:54:46.569Z,0.70
2022-09-04T10:55:46.550Z,0.60
2022-09-04T10:56:46.562Z,0.70
2022-09-04T10:57:46.574Z,0.70
2022-09-04T10:58:46.552Z,0.60
2022-09-04T10:59:46.552Z,0.60
2022-09-04T11:00:46.596Z,0.60
2022-09-04T11:01:46.546Z,0.60
2022-09-04T11:02:46.552Z,0.60
2022-09-04T11:03:46.553Z,0.70
2022-09-04T11:04:46.532Z,0.60
2022-09-04T11:05:46.517Z,0.70
2022-09-04T11:06:46.506Z,0.70
2022-09-04T11:07:46.510Z,0.70
2022-09-04T11:08:46.520Z,0.70
2022-09-04T11:09:46.508Z,0.70
2022-09-04T11:10:46.494Z,0.70
2022-09-04T11:11:46.503Z,0.70
2022-09-04T11:12:46.493Z,0.70
2022-09-04T11:13:51.147Z,0.70
2022-09-04T11:14:47.505Z,0.70
2022-09-04T11:15:46.513Z,0.60
2022-09-04T11:16:46.541Z,0.60
2022-09-04T11:17:46.473Z,0.60
2022-09-04T11:18:46.452Z,0.60
2022-09-04T11:19:46.474Z,0.60
2022-09-04T11:20:46.454Z,0.60
2022-09-04T11:21:46.453Z,0.60
2022-09-04T11:22:46.445Z,0.50
2022-09-04T11:23:46.453Z,0.50
2022-09-04T11:24:46.449Z,0.50
2022-09-04T11:25:46.434Z,0.50
2022-09-04T11:26:46.429Z,0.40
2022-09-04T11:27:46.429Z,0.40
2022-09-04T11:28:46.425Z,0.40
2022-09-04T11:29:46.433Z,0.50
2022-09-04T11:30:48.249Z,0.40
2022-09-04T11:31:46.432Z,0.40
2022-09-04T11:32:46.405Z,0.40
2022-09-04T11:33:46.397Z,0.40
2022-09-04T11:34:46.390Z,0.30
2022-09-04T11:35:46.390Z,0.30
2022-09-04T11:36:46.393Z,0.30
2022-09-04T11:37:46.372Z,0.30
2022-09-04T11:38:46.368Z,0.30
2022-09-04T11:39:46.408Z,0.30
2022-09-04T11:40:46.365Z,0.30
2022-09-04T11:41:46.377Z,0.30
2022-09-04T11:42:46.357Z,0.30
2022-09-04T11:43:46.369Z,0.30
2022-09-04T11:44:46.351Z,0.30
2022-09-04T11:45:46.386Z,0.30
2022-09-04T11:46:46.337Z,0.30
2022-09-04T11:47:46.334Z,0.30
2022-09-04T11:48:46.337Z,0.30
2022-09-04T11:49:46.317Z,0.30
2022-09-04T11:50:46.322Z,0.30
2022-09-04T11:51:46.326Z,0.30
2022-09-04T11:52:46.309Z,0.30
2022-09-04T11:53:46.301Z,0.30
2022-09-04T11:54:46.297Z,0.30
2022-09-04T11:55:49.498Z,0.30
2022-09-04T11:56:48.307Z,0.30
2022-09-04T11:57:46.289Z,0.20
2022-09-04T11:58:46.273Z,0.30
2022-09-04T11:59:46.281Z,0.30
2022-09-04T12:00:46.278Z,0.20
2022-09-04T12:01:48.003Z,0.20
2022-09-04T12:02:47.265Z,0.20
2022-09-04T12:03:46.301Z,0.20
2022-09-04T12:04:46.249Z,0.20
2022-09-04T12:05:46.276Z,0.20
2022-09-04T12:06:46.244Z,0.20
2022-09-04T12:07:46.237Z,0.20
2022-09-04T12:08:46.241Z,0.20
2022-09-04T12:09:46.225Z,0.20
2022-09-04T12:10:46.250Z,0.20
2022-09-04T12:11:46.221Z,0.20
2022-09-04T12:12:46.216Z,0.20
2022-09-04T12:13:46.205Z,0.20
2022-09-04T12:14:46.205Z,0.20
2022-09-04T12:15:46.203Z,0.20
2022-09-04T12:16:46.227Z,0.20
2022-09-04T12:17:46.189Z,0.20
2022-09-04T12:18:46.193Z,0.20
2022-09-04T12:19:46.183Z,0.20
2022-09-04T12:20:46.189Z,0.20
2022-09-04T12:21:46.198Z,0.20
2022-09-04T12:22:46.170Z,0.20
2022-09-04T12:23:46.148Z,0.20
2022-09-04T12:24:47.156Z,0.20
2022-09-04T12:25:46.153Z,0.20
2022-09-04T12:26:52.040Z,0.20
2022-09-04T12:27:47.158Z,0.20
2022-09-04T12:28:46.140Z,0.20
2022-09-04T12:29:46.160Z,0.20
2022-09-04T12:30:46.125Z,0.20
2022-09-04T12:31:46.153Z,0.20
2022-09-04T12:32:47.168Z,0.20
2022-09-04T12:33:46.111Z,0.20
2022-09-04T12:34:46.101Z,0.20
2022-09-04T12:35:46.100Z,0.20
2022-09-04T12:36:46.101Z,0.20
2022-09-04T12:37:46.107Z,0.20
2022-09-04T12:38:46.081Z,0.20
2022-09-04T12:39:46.169Z,0.20
2022-09-04T12:40:46.072Z,0.10
2022-09-04T12:41:49.779Z,0.20
2022-09-04T12:42:47.091Z,0.20
2022-09-04T12:43:46.068Z,0.20
2022-09-04T12:44:46.046Z,0.10
2022-09-04T12:45:46.083Z,0.10
2022-09-04T12:46:46.046Z,0.20
2022-09-04T12:47:46.054Z,0.10
2022-09-04T12:48:46.034Z,0.10
2022-09-04T12:49:46.030Z,0.10
2022-09-04T12:50:46.014Z,0.20
2022-09-04T12:51:46.030Z,0.10
2022-09-04T12:52:46.010Z,0.10
2022-09-04T12:53:50.502Z,0.10
2022-09-04T12:54:48.002Z,0.10
2022-09-04T12:55:46.002Z,0.10
2022-09-04T12:56:48.189Z,0.10
2022-09-04T12:57:45.978Z,0.10
2022-09-04T12:58:46.001Z,0.10
2022-09-04T12:59:45.970Z,0.10
2022-09-04T13:00:49.493Z,0.10
2022-09-04T13:01:46.155Z,0.10
2022-09-04T13:02:45.962Z,0.20
2022-09-04T13:03:45.962Z,0.10
2022-09-04T13:04:45.962Z,0.10
2022-09-04T13:05:52.746Z,0.20
2022-09-04T13:06:50.372Z,0.20
2022-09-04T13:07:46.922Z,0.10
2022-09-04T13:08:45.932Z,0.10
2022-09-04T13:09:53.578Z,0.10
2022-09-04T13:10:46.911Z,0.10
2022-09-04T13:11:45.906Z,0.10
2022-09-04T13:12:45.900Z,0.10
2022-09-04T13:13:45.981Z,0.10
2022-09-04T13:14:45.903Z,0.10
2022-09-04T13:15:45.895Z,0.10
2022-09-04T13:16:45.956Z,0.10
2022-09-04T13:17:45.872Z,0.10
2022-09-04T13:18:45.937Z,0.10